sensor_id;sensor_type;location;lat;lon;timestamp;temperature;humidity
14079;DHT22;7115;50.150;8.568;2023-04-01T00:00:58;11.50;99.90
14079;DHT22;7115;50.150;8.568;2023-04-01T00:03:27;11.50;99.90
14079;DHT22;7115;50.150;8.568;2023-04-01T00:05:55;11.50;99.90
14079;DHT22;7115;50.150;8.568;2023-04-01T00:08:22;11.60;99.90
14079;DHT22;7115;50.150;8.568;2023-04-01T00:10:50;11.50;99.90
14079;DHT22;7115;50.150;8.568;2023-04-01T00:13:17;11.50;99.90
14079;DHT22;7115;50.150;8.568;2023-04-01T00:15:44;11.50;99.90
14079;DHT22;7115;50.150;8.568;2023-04-01T00:18:11;11.50;99.90
14079;DHT22;7115;50.150;8.568;2023-04-01T00:20:43;11.50;99.90
14079;DHT22;7115;50.150;8.568;2023-04-01T00:23:10;11.50;99.90
14079;DHT22;7115;50.150;8.568;2023-04-01T00:25:37;11.50;99.90
14079;DHT22;7115;50.150;8.568;2023-04-01T00:28:04;11.50;99.90
14079;DHT22;7115;50.150;8.568;2023-04-01T00:30:31;11.50;99.90
14079;DHT22;7115;50.150;8.568;2023-04-01T00:32:58;11.50;99.90
14079;DHT22;7115;50.150;8.568;2023-04-01T00:35:25;11.50;99.90
14079;DHT22;7115;50.150;8.568;2023-04-01T00:37:53;11.50;99.90
14079;DHT22;7115;50.150;8.568;2023-04-01T00:40:26;11.50;99.90
14079;DHT22;7115;50.150;8.568;2023-04-01T00:42:54;11.50;99.90
14079;DHT22;7115;50.150;8.568;2023-04-01T00:45:31;11.50;99.90
14079;DHT22;7115;50.150;8.568;2023-04-01T00:48:02;11.50;99.90
14079;DHT22;7115;50.150;8.568;2023-04-01T00:50:31;11.50;99.90
14079;DHT22;7115;50.150;8.568;2023-04-01T00:53:02;11.50;99.90
14079;DHT22;7115;50.150;8.568;2023-04-01T00:55:33;11.50;99.90
14079;DHT22;7115;50.150;8.568;2023-04-01T00:58:03;11.50;99.90
14079;DHT22;7115;50.150;8.568;2023-04-01T01:00:30;11.50;99.90
14079;DHT22;7115;50.150;8.568;2023-04-01T01:02:58;11.50;99.90
14079;DHT22;7115;50.150;8.568;2023-04-01T01:05:32;11.50;99.90
14079;DHT22;7115;50.150;8.568;2023-04-01T01:08:23;11.50;99.90
14079;DHT22;7115;50.150;8.568;2023-04-01T01:10:57;11.50;99.90
14079;DHT22;7115;50.150;8.568;2023-04-01T01:13:28;11.60;99.90
14079;DHT22;7115;50.150;8.568;2023-04-01T01:16:00;11.50;99.90
14079;DHT22;7115;50.150;8.568;2023-04-01T01:18:33;11.50;99.90
14079;DHT22;7115;50.150;8.568;2023-04-01T01:21:23;11.50;99.90
14079;DHT22;7115;50.150;8.568;2023-04-01T01:26:57;11.50;99.90
14079;DHT22;7115;50.150;8.568;2023-04-01T01:29:43;11.50;99.90
14079;DHT22;7115;50.150;8.568;2023-04-01T01:32:22;11.40;99.90
14079;DHT22;7115;50.150;8.568;2023-04-01T01:35:05;11.50;99.90
14079;DHT22;7115;50.150;8.568;2023-04-01T01:37:34;11.40;99.90
14079;DHT22;7115;50.150;8.568;2023-04-01T01:40:04;11.40;99.90
14079;DHT22;7115;50.150;8.568;2023-04-01T01:42:33;11.50;99.90
14079;DHT22;7115;50.150;8.568;2023-04-01T01:45:04;11.40;99.90
14079;DHT22;7115;50.150;8.568;2023-04-01T01:47:33;11.40;99.90
14079;DHT22;7115;50.150;8.568;2023-04-01T01:50:02;11.40;99.90
14079;DHT22;7115;50.150;8.568;2023-04-01T01:52:31;11.40;99.90
14079;DHT22;7115;50.150;8.568;2023-04-01T01:54:58;11.40;99.90
14079;DHT22;7115;50.150;8.568;2023-04-01T01:57:27;11.40;99.90
14079;DHT22;7115;50.150;8.568;2023-04-01T01:59:58;11.40;99.90
14079;DHT22;7115;50.150;8.568;2023-04-01T02:02:26;11.40;99.90
14079;DHT22;7115;50.150;8.568;2023-04-01T02:04:58;11.40;99.90
14079;DHT22;7115;50.150;8.568;2023-04-01T02:07:27;11.40;99.90
14079;DHT22;7115;50.150;8.568;2023-04-01T02:09:57;11.40;99.90
14079;DHT22;7115;50.150;8.568;2023-04-01T02:12:24;11.40;99.90
14079;DHT22;7115;50.150;8.568;2023-04-01T02:14:54;11.40;99.90
14079;DHT22;7115;50.150;8.568;2023-04-01T02:17:23;11.40;99.90
14079;DHT22;7115;50.150;8.568;2023-04-01T02:19:55;11.50;99.90
14079;DHT22;7115;50.150;8.568;2023-04-01T02:22:25;11.50;99.90
14079;DHT22;7115;50.150;8.568;2023-04-01T02:24:57;11.40;99.90
14079;DHT22;7115;50.150;8.568;2023-04-01T02:27:26;11.40;99.90
14079;DHT22;7115;50.150;8.568;2023-04-01T02:29:53;11.40;99.90
14079;DHT22;7115;50.150;8.568;2023-04-01T02:32:20;11.40;99.90
14079;DHT22;7115;50.150;8.568;2023-04-01T02:34:48;11.40;99.90
14079;DHT22;7115;50.150;8.568;2023-04-01T02:37:15;11.40;99.90
14079;DHT22;7115;50.150;8.568;2023-04-01T02:39:42;11.40;99.90
14079;DHT22;7115;50.150;8.568;2023-04-01T02:42:09;11.30;99.90
14079;DHT22;7115;50.150;8.568;2023-04-01T02:44:38;11.30;99.90
14079;DHT22;7115;50.150;8.568;2023-04-01T02:47:05;11.30;99.90
14079;DHT22;7115;50.150;8.568;2023-04-01T02:49:32;11.30;99.90
14079;DHT22;7115;50.150;8.568;2023-04-01T02:51:59;11.30;99.90
14079;DHT22;7115;50.150;8.568;2023-04-01T02:54:26;11.30;99.90
14079;DHT22;7115;50.150;8.568;2023-04-01T02:56:53;11.30;99.90
14079;DHT22;7115;50.150;8.568;2023-04-01T02:59:20;11.30;99.90
14079;DHT22;7115;50.150;8.568;2023-04-01T03:01:48;11.30;99.90
14079;DHT22;7115;50.150;8.568;2023-04-01T03:04:15;11.30;99.90
14079;DHT22;7115;50.150;8.568;2023-04-01T03:06:42;11.30;99.90
14079;DHT22;7115;50.150;8.568;2023-04-01T03:09:08;11.30;99.90
14079;DHT22;7115;50.150;8.568;2023-04-01T03:11:35;11.30;99.90
14079;DHT22;7115;50.150;8.568;2023-04-01T03:14:02;11.30;99.90
14079;DHT22;7115;50.150;8.568;2023-04-01T03:16:29;11.30;99.90
14079;DHT22;7115;50.150;8.568;2023-04-01T03:18:57;11.30;99.90
14079;DHT22;7115;50.150;8.568;2023-04-01T03:21:26;11.20;99.90
14079;DHT22;7115;50.150;8.568;2023-04-01T03:23:53;11.20;99.90
14079;DHT22;7115;50.150;8.568;2023-04-01T03:26:20;11.20;99.90
14079;DHT22;7115;50.150;8.568;2023-04-01T03:28:48;11.20;99.90
14079;DHT22;7115;50.150;8.568;2023-04-01T03:31:15;11.20;99.90
14079;DHT22;7115;50.150;8.568;2023-04-01T03:33:42;11.10;99.90
14079;DHT22;7115;50.150;8.568;2023-04-01T03:36:11;11.10;99.90
14079;DHT22;7115;50.150;8.568;2023-04-01T03:38:40;11.10;99.90
14079;DHT22;7115;50.150;8.568;2023-04-01T03:41:07;11.10;99.90
14079;DHT22;7115;50.150;8.568;2023-04-01T03:43:37;11.10;99.90
14079;DHT22;7115;50.150;8.568;2023-04-01T03:46:04;11.10;99.90
14079;DHT22;7115;50.150;8.568;2023-04-01T03:48:31;11.10;99.90
14079;DHT22;7115;50.150;8.568;2023-04-01T03:50:58;11.10;99.90
14079;DHT22;7115;50.150;8.568;2023-04-01T03:53:26;11.10;99.90
14079;DHT22;7115;50.150;8.568;2023-04-01T03:55:53;11.10;99.90
14079;DHT22;7115;50.150;8.568;2023-04-01T03:58:20;11.20;99.90
14079;DHT22;7115;50.150;8.568;2023-04-01T04:00:47;11.10;99.90
14079;DHT22;7115;50.150;8.568;2023-04-01T04:03:14;11.10;99.90
14079;DHT22;7115;50.150;8.568;2023-04-01T04:05:46;11.20;99.90
14079;DHT22;7115;50.150;8.568;2023-04-01T04:08:13;11.10;99.90
14079;DHT22;7115;50.150;8.568;2023-04-01T04:10:41;11.20;99.90
14079;DHT22;7115;50.150;8.568;2023-04-01T04:13:09;11.10;99.90
14079;DHT22;7115;50.150;8.568;2023-04-01T04:15:36;11.10;99.90
14079;DHT22;7115;50.150;8.568;2023-04-01T04:18:03;11.10;99.90
14079;DHT22;7115;50.150;8.568;2023-04-01T04:20:30;11.10;99.90
14079;DHT22;7115;50.150;8.568;2023-04-01T04:22:57;11.10;99.90
14079;DHT22;7115;50.150;8.568;2023-04-01T04:25:24;11.10;99.90
14079;DHT22;7115;50.150;8.568;2023-04-01T04:27:52;11.10;99.90
14079;DHT22;7115;50.150;8.568;2023-04-01T04:30:19;11.00;99.90
14079;DHT22;7115;50.150;8.568;2023-04-01T04:32:46;11.10;99.90
14079;DHT22;7115;50.150;8.568;2023-04-01T04:35:13;11.10;99.90
14079;DHT22;7115;50.150;8.568;2023-04-01T04:37:39;11.00;99.90
14079;DHT22;7115;50.150;8.568;2023-04-01T04:40:07;11.10;99.90
14079;DHT22;7115;50.150;8.568;2023-04-01T04:42:34;11.00;99.90
14079;DHT22;7115;50.150;8.568;2023-04-01T04:45:03;11.00;99.90
14079;DHT22;7115;50.150;8.568;2023-04-01T04:47:31;11.00;99.90
14079;DHT22;7115;50.150;8.568;2023-04-01T04:49:58;11.00;99.90
14079;DHT22;7115;50.150;8.568;2023-04-01T04:52:24;11.00;99.90
14079;DHT22;7115;50.150;8.568;2023-04-01T04:54:51;11.00;99.90
14079;DHT22;7115;50.150;8.568;2023-04-01T04:57:18;11.00;99.90
14079;DHT22;7115;50.150;8.568;2023-04-01T04:59:45;11.00;99.90
14079;DHT22;7115;50.150;8.568;2023-04-01T05:02:13;11.00;99.90
14079;DHT22;7115;50.150;8.568;2023-04-01T05:04:40;11.00;99.90
14079;DHT22;7115;50.150;8.568;2023-04-01T05:07:07;10.90;99.90
14079;DHT22;7115;50.150;8.568;2023-04-01T05:09:34;10.90;99.90
14079;DHT22;7115;50.150;8.568;2023-04-01T05:12:01;10.90;99.90
14079;DHT22;7115;50.150;8.568;2023-04-01T05:14:28;10.90;99.90
14079;DHT22;7115;50.150;8.568;2023-04-01T05:16:55;10.90;99.90
14079;DHT22;7115;50.150;8.568;2023-04-01T05:19:23;10.80;99.90
14079;DHT22;7115;50.150;8.568;2023-04-01T05:21:50;10.80;99.90
14079;DHT22;7115;50.150;8.568;2023-04-01T05:24:17;10.80;99.90
14079;DHT22;7115;50.150;8.568;2023-04-01T05:26:44;10.60;99.90
14079;DHT22;7115;50.150;8.568;2023-04-01T05:29:10;10.80;99.90
14079;DHT22;7115;50.150;8.568;2023-04-01T05:31:38;10.70;99.90
14079;DHT22;7115;50.150;8.568;2023-04-01T05:34:05;10.70;99.90
14079;DHT22;7115;50.150;8.568;2023-04-01T05:36:33;10.70;99.90
14079;DHT22;7115;50.150;8.568;2023-04-01T05:39:00;10.60;99.90
14079;DHT22;7115;50.150;8.568;2023-04-01T05:41:27;10.60;99.90
14079;DHT22;7115;50.150;8.568;2023-04-01T05:43:54;10.60;99.90
14079;DHT22;7115;50.150;8.568;2023-04-01T05:46:21;10.60;99.90
14079;DHT22;7115;50.150;8.568;2023-04-01T05:48:48;10.50;99.90
14079;DHT22;7115;50.150;8.568;2023-04-01T05:51:15;10.50;99.90
14079;DHT22;7115;50.150;8.568;2023-04-01T05:53:44;10.50;99.90
14079;DHT22;7115;50.150;8.568;2023-04-01T05:56:11;10.50;99.90
14079;DHT22;7115;50.150;8.568;2023-04-01T05:58:38;10.40;99.90
14079;DHT22;7115;50.150;8.568;2023-04-01T06:01:06;10.40;99.90
14079;DHT22;7115;50.150;8.568;2023-04-01T06:03:41;10.40;99.90
14079;DHT22;7115;50.150;8.568;2023-04-01T06:06:13;10.40;99.90
14079;DHT22;7115;50.150;8.568;2023-04-01T06:08:41;10.40;99.90
14079;DHT22;7115;50.150;8.568;2023-04-01T06:11:19;10.40;99.90
14079;DHT22;7115;50.150;8.568;2023-04-01T06:17:00;10.40;99.90
14079;DHT22;7115;50.150;8.568;2023-04-01T06:19:38;10.40;99.90
14079;DHT22;7115;50.150;8.568;2023-04-01T06:22:33;10.50;99.90
14079;DHT22;7115;50.150;8.568;2023-04-01T06:25:21;10.50;99.90
14079;DHT22;7115;50.150;8.568;2023-04-01T06:28:01;10.40;99.90
14079;DHT22;7115;50.150;8.568;2023-04-01T06:30:40;10.40;99.90
14079;DHT22;7115;50.150;8.568;2023-04-01T06:33:35;10.40;99.90
14079;DHT22;7115;50.150;8.568;2023-04-01T06:36:14;10.40;99.90
14079;DHT22;7115;50.150;8.568;2023-04-01T06:39:07;10.40;99.90
14079;DHT22;7115;50.150;8.568;2023-04-01T06:44:41;10.40;99.90
14079;DHT22;7115;50.150;8.568;2023-04-01T06:47:23;10.40;99.90
14079;DHT22;7115;50.150;8.568;2023-04-01T06:50:01;10.40;99.90
14079;DHT22;7115;50.150;8.568;2023-04-01T06:52:39;10.50;99.90
14079;DHT22;7115;50.150;8.568;2023-04-01T06:55:26;10.50;99.90
14079;DHT22;7115;50.150;8.568;2023-04-01T06:57:56;10.50;99.90
14079;DHT22;7115;50.150;8.568;2023-04-01T07:00:29;10.50;99.90
14079;DHT22;7115;50.150;8.568;2023-04-01T07:03:05;10.50;99.90
14079;DHT22;7115;50.150;8.568;2023-04-01T07:05:34;10.50;99.90
14079;DHT22;7115;50.150;8.568;2023-04-01T07:08:04;10.50;99.90
14079;DHT22;7115;50.150;8.568;2023-04-01T07:10:38;10.50;99.90
14079;DHT22;7115;50.150;8.568;2023-04-01T07:13:15;10.50;99.90
14079;DHT22;7115;50.150;8.568;2023-04-01T07:15:48;10.50;99.90
14079;DHT22;7115;50.150;8.568;2023-04-01T07:18:21;10.50;99.90
14079;DHT22;7115;50.150;8.568;2023-04-01T07:20:49;10.50;99.90
14079;DHT22;7115;50.150;8.568;2023-04-01T07:23:22;10.50;99.90
14079;DHT22;7115;50.150;8.568;2023-04-01T07:25:53;10.50;99.90
14079;DHT22;7115;50.150;8.568;2023-04-01T07:28:21;10.50;99.90
14079;DHT22;7115;50.150;8.568;2023-04-01T07:31:00;10.50;99.90
14079;DHT22;7115;50.150;8.568;2023-04-01T07:33:33;10.60;99.90
14079;DHT22;7115;50.150;8.568;2023-04-01T07:36:08;10.60;99.90
14079;DHT22;7115;50.150;8.568;2023-04-01T07:38:45;10.60;99.90
14079;DHT22;7115;50.150;8.568;2023-04-01T07:41:23;10.60;99.90
14079;DHT22;7115;50.150;8.568;2023-04-01T07:44:00;10.60;99.90
14079;DHT22;7115;50.150;8.568;2023-04-01T07:46:51;10.70;99.90
14079;DHT22;7115;50.150;8.568;2023-04-01T07:49:26;10.70;99.90
14079;DHT22;7115;50.150;8.568;2023-04-01T07:52:00;10.70;99.90
14079;DHT22;7115;50.150;8.568;2023-04-01T07:54:35;10.80;99.90
14079;DHT22;7115;50.150;8.568;2023-04-01T07:57:11;10.80;99.90
14079;DHT22;7115;50.150;8.568;2023-04-01T07:59:45;10.90;99.90
14079;DHT22;7115;50.150;8.568;2023-04-01T08:02:25;10.90;99.90
14079;DHT22;7115;50.150;8.568;2023-04-01T08:05:03;11.00;99.90
14079;DHT22;7115;50.150;8.568;2023-04-01T08:07:39;11.00;99.90
14079;DHT22;7115;50.150;8.568;2023-04-01T08:10:13;11.10;99.90
14079;DHT22;7115;50.150;8.568;2023-04-01T08:12:51;11.10;99.90
14079;DHT22;7115;50.150;8.568;2023-04-01T08:15:23;11.20;99.90
14079;DHT22;7115;50.150;8.568;2023-04-01T08:18:03;11.20;99.90
14079;DHT22;7115;50.150;8.568;2023-04-01T08:20:34;11.20;99.90
14079;DHT22;7115;50.150;8.568;2023-04-01T08:23:08;11.20;99.90
14079;DHT22;7115;50.150;8.568;2023-04-01T08:25:40;11.20;99.90
14079;DHT22;7115;50.150;8.568;2023-04-01T08:28:13;11.10;99.90
14079;DHT22;7115;50.150;8.568;2023-04-01T08:30:44;11.20;99.90
14079;DHT22;7115;50.150;8.568;2023-04-01T08:33:19;11.20;99.90
14079;DHT22;7115;50.150;8.568;2023-04-01T08:35:50;11.20;99.90
14079;DHT22;7115;50.150;8.568;2023-04-01T08:38:23;11.20;99.90
14079;DHT22;7115;50.150;8.568;2023-04-01T08:40:59;11.20;99.90
14079;DHT22;7115;50.150;8.568;2023-04-01T08:43:47;11.30;99.90
14079;DHT22;7115;50.150;8.568;2023-04-01T08:46:34;11.30;99.90
14079;DHT22;7115;50.150;8.568;2023-04-01T08:49:20;11.40;99.90
14079;DHT22;7115;50.150;8.568;2023-04-01T08:52:11;11.40;99.90
14079;DHT22;7115;50.150;8.568;2023-04-01T08:55:25;11.40;99.90
14079;DHT22;7115;50.150;8.568;2023-04-01T08:58:07;11.40;99.90
14079;DHT22;7115;50.150;8.568;2023-04-01T09:00:43;11.40;99.90
14079;DHT22;7115;50.150;8.568;2023-04-01T09:03:36;11.50;99.90
14079;DHT22;7115;50.150;8.568;2023-04-01T09:06:23;11.50;99.90
14079;DHT22;7115;50.150;8.568;2023-04-01T09:09:03;11.50;99.90
14079;DHT22;7115;50.150;8.568;2023-04-01T09:11:44;11.40;99.90
14079;DHT22;7115;50.150;8.568;2023-04-01T09:14:30;11.40;99.90
14079;DHT22;7115;50.150;8.568;2023-04-01T09:17:36;11.40;99.90
14079;DHT22;7115;50.150;8.568;2023-04-01T09:20:17;11.40;99.90
14079;DHT22;7115;50.150;8.568;2023-04-01T09:23:00;11.40;99.90
14079;DHT22;7115;50.150;8.568;2023-04-01T09:25:46;11.40;99.90
14079;DHT22;7115;50.150;8.568;2023-04-01T09:28:18;11.50;99.90
14079;DHT22;7115;50.150;8.568;2023-04-01T09:31:12;11.50;99.90
14079;DHT22;7115;50.150;8.568;2023-04-01T09:34:31;11.60;99.90
14079;DHT22;7115;50.150;8.568;2023-04-01T09:37:18;11.60;99.90
14079;DHT22;7115;50.150;8.568;2023-04-01T09:40:01;11.70;99.90
14079;DHT22;7115;50.150;8.568;2023-04-01T09:42:42;11.70;99.90
14079;DHT22;7115;50.150;8.568;2023-04-01T09:45:23;11.70;99.90
14079;DHT22;7115;50.150;8.568;2023-04-01T09:48:04;11.80;99.90
14079;DHT22;7115;50.150;8.568;2023-04-01T09:50:38;11.90;99.90
14079;DHT22;7115;50.150;8.568;2023-04-01T09:53:25;12.00;99.90
14079;DHT22;7115;50.150;8.568;2023-04-01T10:05:43;11.90;99.90
14079;DHT22;7115;50.150;8.568;2023-04-01T10:15:01;11.90;99.90
14079;DHT22;7115;50.150;8.568;2023-04-01T10:23:49;11.80;99.90
14079;DHT22;7115;50.150;8.568;2023-04-01T10:26:32;11.80;99.90
14079;DHT22;7115;50.150;8.568;2023-04-01T10:29:25;11.80;99.90
14079;DHT22;7115;50.150;8.568;2023-04-01T10:35:20;11.80;99.90
14079;DHT22;7115;50.150;8.568;2023-04-01T10:38:19;11.80;99.90
14079;DHT22;7115;50.150;8.568;2023-04-01T10:41:31;11.90;99.90
14079;DHT22;7115;50.150;8.568;2023-04-01T10:44:37;11.90;99.90
14079;DHT22;7115;50.150;8.568;2023-04-01T10:47:38;11.90;99.90
14079;DHT22;7115;50.150;8.568;2023-04-01T10:50:44;12.00;99.90
14079;DHT22;7115;50.150;8.568;2023-04-01T10:53:39;12.00;99.90
14079;DHT22;7115;50.150;8.568;2023-04-01T10:59:28;12.10;99.90
14079;DHT22;7115;50.150;8.568;2023-04-01T11:02:40;12.10;99.90
14079;DHT22;7115;50.150;8.568;2023-04-01T11:05:35;12.10;99.90
14079;DHT22;7115;50.150;8.568;2023-04-01T11:08:33;12.20;99.90
14079;DHT22;7115;50.150;8.568;2023-04-01T11:24:05;12.50;99.90
14079;DHT22;7115;50.150;8.568;2023-04-01T11:26:45;12.50;99.90
14079;DHT22;7115;50.150;8.568;2023-04-01T11:29:45;12.50;99.90
14079;DHT22;7115;50.150;8.568;2023-04-01T11:32:39;12.60;99.90
14079;DHT22;7115;50.150;8.568;2023-04-01T11:35:35;12.50;99.90
14079;DHT22;7115;50.150;8.568;2023-04-01T11:38:24;12.60;99.90
14079;DHT22;7115;50.150;8.568;2023-04-01T11:40:59;12.60;99.90
14079;DHT22;7115;50.150;8.568;2023-04-01T11:43:33;12.60;99.90
14079;DHT22;7115;50.150;8.568;2023-04-01T11:46:05;12.70;99.90
14079;DHT22;7115;50.150;8.568;2023-04-01T11:48:59;12.70;99.90
14079;DHT22;7115;50.150;8.568;2023-04-01T11:51:46;12.70;99.90
14079;DHT22;7115;50.150;8.568;2023-04-01T11:57:25;12.80;99.90
14079;DHT22;7115;50.150;8.568;2023-04-01T12:00:22;12.80;99.90
14079;DHT22;7115;50.150;8.568;2023-04-01T12:03:06;12.70;99.90
14079;DHT22;7115;50.150;8.568;2023-04-01T12:05:42;12.70;99.90
14079;DHT22;7115;50.150;8.568;2023-04-01T12:08:20;12.70;99.90
14079;DHT22;7115;50.150;8.568;2023-04-01T12:10:53;12.60;99.90
14079;DHT22;7115;50.150;8.568;2023-04-01T12:13:35;12.60;99.90
14079;DHT22;7115;50.150;8.568;2023-04-01T12:16:15;12.50;99.90
14079;DHT22;7115;50.150;8.568;2023-04-01T12:18:48;12.50;99.90
14079;DHT22;7115;50.150;8.568;2023-04-01T12:21:24;12.50;99.90
14079;DHT22;7115;50.150;8.568;2023-04-01T12:24:04;12.40;99.90
14079;DHT22;7115;50.150;8.568;2023-04-01T12:26:47;12.30;99.90
14079;DHT22;7115;50.150;8.568;2023-04-01T12:29:39;12.30;99.90
14079;DHT22;7115;50.150;8.568;2023-04-01T12:32:18;12.20;99.90
14079;DHT22;7115;50.150;8.568;2023-04-01T12:34:58;12.20;99.90
14079;DHT22;7115;50.150;8.568;2023-04-01T12:37:35;12.20;99.90
14079;DHT22;7115;50.150;8.568;2023-04-01T12:40:30;12.20;99.90
14079;DHT22;7115;50.150;8.568;2023-04-01T12:43:16;12.20;99.90
14079;DHT22;7115;50.150;8.568;2023-04-01T12:45:54;12.20;99.90
14079;DHT22;7115;50.150;8.568;2023-04-01T12:48:50;12.20;99.90
14079;DHT22;7115;50.150;8.568;2023-04-01T12:51:34;12.30;99.90
14079;DHT22;7115;50.150;8.568;2023-04-01T12:54:38;12.30;99.90
14079;DHT22;7115;50.150;8.568;2023-04-01T13:00:12;12.20;99.90
14079;DHT22;7115;50.150;8.568;2023-04-01T13:02:55;12.20;99.90
14079;DHT22;7115;50.150;8.568;2023-04-01T13:08:53;12.30;99.90
14079;DHT22;7115;50.150;8.568;2023-04-01T13:11:32;12.30;99.90
14079;DHT22;7115;50.150;8.568;2023-04-01T13:14:21;12.40;99.90
14079;DHT22;7115;50.150;8.568;2023-04-01T13:17:03;12.40;99.90
14079;DHT22;7115;50.150;8.568;2023-04-01T13:19:37;12.50;99.90
14079;DHT22;7115;50.150;8.568;2023-04-01T13:22:17;12.50;99.90
14079;DHT22;7115;50.150;8.568;2023-04-01T13:24:49;12.60;99.90
14079;DHT22;7115;50.150;8.568;2023-04-01T13:27:21;12.60;99.90
14079;DHT22;7115;50.150;8.568;2023-04-01T13:30:01;12.70;99.90
14079;DHT22;7115;50.150;8.568;2023-04-01T13:32:34;12.80;99.90
14079;DHT22;7115;50.150;8.568;2023-04-01T13:35:18;12.90;99.90
14079;DHT22;7115;50.150;8.568;2023-04-01T13:38:03;13.10;99.90
14079;DHT22;7115;50.150;8.568;2023-04-01T13:40:39;13.30;99.90
14079;DHT22;7115;50.150;8.568;2023-04-01T13:43:31;13.40;99.90
14079;DHT22;7115;50.150;8.568;2023-04-01T13:46:27;13.60;99.90
14079;DHT22;7115;50.150;8.568;2023-04-01T13:52:22;13.80;99.90
14079;DHT22;7115;50.150;8.568;2023-04-01T13:55:10;13.90;99.90
14079;DHT22;7115;50.150;8.568;2023-04-01T13:58:02;13.80;99.90
14079;DHT22;7115;50.150;8.568;2023-04-01T14:00:45;13.80;99.90
14079;DHT22;7115;50.150;8.568;2023-04-01T14:03:42;13.80;99.90
14079;DHT22;7115;50.150;8.568;2023-04-01T14:06:18;13.70;99.90
14079;DHT22;7115;50.150;8.568;2023-04-01T14:09:16;13.60;99.90
14079;DHT22;7115;50.150;8.568;2023-04-01T14:11:52;13.70;99.90
14079;DHT22;7115;50.150;8.568;2023-04-01T14:14:31;13.70;99.90
14079;DHT22;7115;50.150;8.568;2023-04-01T14:17:30;13.60;99.90
14079;DHT22;7115;50.150;8.568;2023-04-01T14:23:13;13.50;99.90
14079;DHT22;7115;50.150;8.568;2023-04-01T14:28:47;13.60;99.90
14079;DHT22;7115;50.150;8.568;2023-04-01T14:31:57;13.70;99.90
14079;DHT22;7115;50.150;8.568;2023-04-01T14:34:43;13.80;99.90
14079;DHT22;7115;50.150;8.568;2023-04-01T14:37:35;14.00;99.90
14079;DHT22;7115;50.150;8.568;2023-04-01T14:40:22;14.10;99.90
14079;DHT22;7115;50.150;8.568;2023-04-01T14:43:06;14.20;99.90
14079;DHT22;7115;50.150;8.568;2023-04-01T14:45:46;14.40;99.90
14079;DHT22;7115;50.150;8.568;2023-04-01T14:48:25;14.50;99.90
14079;DHT22;7115;50.150;8.568;2023-04-01T14:50:57;14.40;99.90
14079;DHT22;7115;50.150;8.568;2023-04-01T14:53:32;14.30;99.90
14079;DHT22;7115;50.150;8.568;2023-04-01T14:56:01;14.20;99.90
14079;DHT22;7115;50.150;8.568;2023-04-01T14:58:43;14.20;99.90
14079;DHT22;7115;50.150;8.568;2023-04-01T15:01:25;14.20;99.90
14079;DHT22;7115;50.150;8.568;2023-04-01T15:04:05;14.20;99.90
14079;DHT22;7115;50.150;8.568;2023-04-01T15:06:51;14.30;99.90
14079;DHT22;7115;50.150;8.568;2023-04-01T15:09:30;14.30;99.90
14079;DHT22;7115;50.150;8.568;2023-04-01T15:12:11;14.30;99.90
14079;DHT22;7115;50.150;8.568;2023-04-01T15:14:55;14.20;99.90
14079;DHT22;7115;50.150;8.568;2023-04-01T15:17:45;14.00;99.90
14079;DHT22;7115;50.150;8.568;2023-04-01T15:20:41;13.80;99.90
14079;DHT22;7115;50.150;8.568;2023-04-01T15:23:23;13.70;99.90
14079;DHT22;7115;50.150;8.568;2023-04-01T15:29:11;13.50;99.90
14079;DHT22;7115;50.150;8.568;2023-04-01T15:31:50;13.30;99.90
14079;DHT22;7115;50.150;8.568;2023-04-01T15:34:29;13.20;99.90
14079;DHT22;7115;50.150;8.568;2023-04-01T15:37:02;13.20;99.90
14079;DHT22;7115;50.150;8.568;2023-04-01T15:39:42;13.10;99.90
14079;DHT22;7115;50.150;8.568;2023-04-01T15:42:31;13.10;99.90
14079;DHT22;7115;50.150;8.568;2023-04-01T15:45:07;13.10;99.90
14079;DHT22;7115;50.150;8.568;2023-04-01T15:47:39;13.10;99.90
14079;DHT22;7115;50.150;8.568;2023-04-01T15:50:43;13.10;99.90
14079;DHT22;7115;50.150;8.568;2023-04-01T15:53:35;13.00;99.90
14079;DHT22;7115;50.150;8.568;2023-04-01T15:56:19;13.00;99.90
14079;DHT22;7115;50.150;8.568;2023-04-01T15:58:57;13.00;99.90
14079;DHT22;7115;50.150;8.568;2023-04-01T16:01:35;13.10;99.90
14079;DHT22;7115;50.150;8.568;2023-04-01T16:04:17;13.10;99.90
14079;DHT22;7115;50.150;8.568;2023-04-01T16:07:05;13.10;99.90
14079;DHT22;7115;50.150;8.568;2023-04-01T16:09:43;13.10;99.90
14079;DHT22;7115;50.150;8.568;2023-04-01T16:12:16;13.10;99.90
14079;DHT22;7115;50.150;8.568;2023-04-01T16:14:54;13.10;99.90
14079;DHT22;7115;50.150;8.568;2023-04-01T16:17:33;13.10;99.90
14079;DHT22;7115;50.150;8.568;2023-04-01T16:20:18;13.10;99.90
14079;DHT22;7115;50.150;8.568;2023-04-01T16:22:51;13.10;99.90
14079;DHT22;7115;50.150;8.568;2023-04-01T16:25:29;13.10;99.90
14079;DHT22;7115;50.150;8.568;2023-04-01T16:28:09;13.10;99.90
14079;DHT22;7115;50.150;8.568;2023-04-01T16:30:43;13.10;99.90
14079;DHT22;7115;50.150;8.568;2023-04-01T16:33:17;13.00;99.90
14079;DHT22;7115;50.150;8.568;2023-04-01T16:35:53;13.00;99.90
14079;DHT22;7115;50.150;8.568;2023-04-01T16:38:26;13.00;99.90
14079;DHT22;7115;50.150;8.568;2023-04-01T16:41:07;13.00;99.90
14079;DHT22;7115;50.150;8.568;2023-04-01T16:43:42;13.00;99.90
14079;DHT22;7115;50.150;8.568;2023-04-01T16:46:28;13.10;99.90
14079;DHT22;7115;50.150;8.568;2023-04-01T16:49:00;13.10;99.90
14079;DHT22;7115;50.150;8.568;2023-04-01T16:51:42;13.10;99.90
14079;DHT22;7115;50.150;8.568;2023-04-01T16:54:17;13.20;99.90
14079;DHT22;7115;50.150;8.568;2023-04-01T16:56:49;13.20;99.90
14079;DHT22;7115;50.150;8.568;2023-04-01T16:59:21;13.20;99.90
14079;DHT22;7115;50.150;8.568;2023-04-01T17:01:53;13.10;99.90
14079;DHT22;7115;50.150;8.568;2023-04-01T17:04:30;13.00;99.90
14079;DHT22;7115;50.150;8.568;2023-04-01T17:07:07;12.80;99.90
14079;DHT22;7115;50.150;8.568;2023-04-01T17:10:00;13.00;99.90
14079;DHT22;7115;50.150;8.568;2023-04-01T17:12:36;13.00;99.90
14079;DHT22;7115;50.150;8.568;2023-04-01T17:15:14;12.90;99.90
14079;DHT22;7115;50.150;8.568;2023-04-01T17:17:50;12.90;99.90
14079;DHT22;7115;50.150;8.568;2023-04-01T17:20:40;12.80;99.90
14079;DHT22;7115;50.150;8.568;2023-04-01T17:23:14;12.80;99.90
14079;DHT22;7115;50.150;8.568;2023-04-01T17:26:00;12.70;99.90
14079;DHT22;7115;50.150;8.568;2023-04-01T17:28:46;12.60;99.90
14079;DHT22;7115;50.150;8.568;2023-04-01T17:31:23;12.60;99.90
14079;DHT22;7115;50.150;8.568;2023-04-01T17:34:03;12.50;99.90
14079;DHT22;7115;50.150;8.568;2023-04-01T17:36:42;12.40;99.90
14079;DHT22;7115;50.150;8.568;2023-04-01T17:39:26;12.40;99.90
14079;DHT22;7115;50.150;8.568;2023-04-01T17:42:04;12.30;99.90
14079;DHT22;7115;50.150;8.568;2023-04-01T17:44:41;12.30;99.90
14079;DHT22;7115;50.150;8.568;2023-04-01T17:53:15;12.20;99.90
14079;DHT22;7115;50.150;8.568;2023-04-01T17:55:59;12.20;99.90
14079;DHT22;7115;50.150;8.568;2023-04-01T17:58:37;12.20;99.90
14079;DHT22;7115;50.150;8.568;2023-04-01T18:01:21;12.20;99.90
14079;DHT22;7115;50.150;8.568;2023-04-01T18:04:08;12.10;99.90